sensor_id;sensor_type;location;lat;lon;timestamp;P1;durP1;ratioP1;P2;durP2;ratioP2
77726;SDS011;68312;53.502;10.030;2023-05-24T00:01:59;15.60;;;2.95;;
77726;SDS011;68312;53.502;10.030;2023-05-24T00:04:24;17.73;;;3.30;;
77726;SDS011;68312;53.502;10.030;2023-05-24T00:06:50;16.65;;;3.33;;
77726;SDS011;68312;53.502;10.030;2023-05-24T00:09:16;20.90;;;4.13;;
77726;SDS011;68312;53.502;10.030;2023-05-24T00:11:41;19.00;;;3.63;;
77726;SDS011;68312;53.502;10.030;2023-05-24T00:14:07;16.30;;;3.42;;
77726;SDS011;68312;53.502;10.030;2023-05-24T00:16:32;19.65;;;3.17;;
77726;SDS011;68312;53.502;10.030;2023-05-24T00:18:58;18.73;;;3.25;;
77726;SDS011;68312;53.502;10.030;2023-05-24T00:21:23;21.45;;;3.65;;
77726;SDS011;68312;53.502;10.030;2023-05-24T00:23:49;19.15;;;3.78;;
77726;SDS011;68312;53.502;10.030;2023-05-24T00:26:14;21.45;;;4.15;;
77726;SDS011;68312;53.502;10.030;2023-05-24T00:28:40;14.27;;;2.92;;
77726;SDS011;68312;53.502;10.030;2023-05-24T00:31:05;15.93;;;3.65;;
77726;SDS011;68312;53.502;10.030;2023-05-24T00:33:31;16.33;;;3.40;;
77726;SDS011;68312;53.502;10.030;2023-05-24T00:35:56;17.50;;;3.30;;
77726;SDS011;68312;53.502;10.030;2023-05-24T00:38:22;17.90;;;3.70;;
77726;SDS011;68312;53.502;10.030;2023-05-24T00:40:49;15.73;;;3.20;;
77726;SDS011;68312;53.502;10.030;2023-05-24T00:43:15;19.58;;;3.80;;
77726;SDS011;68312;53.502;10.030;2023-05-24T00:45:41;23.48;;;4.63;;
77726;SDS011;68312;53.502;10.030;2023-05-24T00:48:07;19.38;;;4.22;;
77726;SDS011;68312;53.502;10.030;2023-05-24T00:50:35;17.20;;;4.25;;
77726;SDS011;68312;53.502;10.030;2023-05-24T00:53:03;15.05;;;3.05;;
77726;SDS011;68312;53.502;10.030;2023-05-24T00:55:32;20.27;;;3.67;;
77726;SDS011;68312;53.502;10.030;2023-05-24T00:57:59;18.30;;;3.78;;
77726;SDS011;68312;53.502;10.030;2023-05-24T01:00:26;18.58;;;3.63;;
77726;SDS011;68312;53.502;10.030;2023-05-24T01:02:53;20.10;;;4.43;;
77726;SDS011;68312;53.502;10.030;2023-05-24T01:05:19;21.02;;;4.10;;
77726;SDS011;68312;53.502;10.030;2023-05-24T01:14:09;17.45;;;3.70;;
77726;SDS011;68312;53.502;10.030;2023-05-24T01:28:34;25.25;;;4.03;;
77726;SDS011;68312;53.502;10.030;2023-05-24T01:31:03;20.90;;;4.22;;
77726;SDS011;68312;53.502;10.030;2023-05-24T01:33:30;16.92;;;3.58;;
77726;SDS011;68312;53.502;10.030;2023-05-24T01:35:56;18.77;;;4.30;;
77726;SDS011;68312;53.502;10.030;2023-05-24T01:38:22;22.40;;;4.25;;
77726;SDS011;68312;53.502;10.030;2023-05-24T01:40:48;19.00;;;3.83;;
77726;SDS011;68312;53.502;10.030;2023-05-24T01:43:36;22.83;;;3.90;;
77726;SDS011;68312;53.502;10.030;2023-05-24T01:49:05;16.60;;;3.55;;
77726;SDS011;68312;53.502;10.030;2023-05-24T01:51:47;18.45;;;3.25;;
77726;SDS011;68312;53.502;10.030;2023-05-24T01:54:24;24.13;;;3.78;;
77726;SDS011;68312;53.502;10.030;2023-05-24T01:57:02;17.80;;;4.32;;
77726;SDS011;68312;53.502;10.030;2023-05-24T01:59:33;12.88;;;3.67;;
77726;SDS011;68312;53.502;10.030;2023-05-24T02:02:03;16.20;;;3.85;;
77726;SDS011;68312;53.502;10.030;2023-05-24T02:04:29;14.27;;;3.65;;
77726;SDS011;68312;53.502;10.030;2023-05-24T02:06:55;20.33;;;3.90;;
77726;SDS011;68312;53.502;10.030;2023-05-24T02:09:20;15.38;;;3.78;;
77726;SDS011;68312;53.502;10.030;2023-05-24T02:11:46;22.60;;;3.78;;
77726;SDS011;68312;53.502;10.030;2023-05-24T02:14:11;15.77;;;4.55;;
77726;SDS011;68312;53.502;10.030;2023-05-24T02:16:37;22.27;;;3.63;;
77726;SDS011;68312;53.502;10.030;2023-05-24T02:19:02;17.92;;;4.85;;
77726;SDS011;68312;53.502;10.030;2023-05-24T02:21:28;16.55;;;3.35;;
77726;SDS011;68312;53.502;10.030;2023-05-24T02:23:53;18.27;;;3.28;;
77726;SDS011;68312;53.502;10.030;2023-05-24T02:26:19;22.67;;;3.42;;
77726;SDS011;68312;53.502;10.030;2023-05-24T02:28:44;18.00;;;3.88;;
77726;SDS011;68312;53.502;10.030;2023-05-24T02:31:10;18.52;;;3.75;;
77726;SDS011;68312;53.502;10.030;2023-05-24T02:33:35;23.52;;;5.28;;
77726;SDS011;68312;53.502;10.030;2023-05-24T02:36:01;17.17;;;3.28;;
77726;SDS011;68312;53.502;10.030;2023-05-24T02:38:27;19.70;;;4.05;;
77726;SDS011;68312;53.502;10.030;2023-05-24T02:40:52;27.10;;;5.57;;
77726;SDS011;68312;53.502;10.030;2023-05-24T02:43:18;15.18;;;3.40;;
77726;SDS011;68312;53.502;10.030;2023-05-24T02:45:43;28.05;;;5.00;;
77726;SDS011;68312;53.502;10.030;2023-05-24T02:48:09;18.23;;;4.00;;
77726;SDS011;68312;53.502;10.030;2023-05-24T02:50:34;19.95;;;3.85;;
77726;SDS011;68312;53.502;10.030;2023-05-24T02:53:00;19.30;;;3.70;;
77726;SDS011;68312;53.502;10.030;2023-05-24T02:55:25;17.95;;;3.58;;
77726;SDS011;68312;53.502;10.030;2023-05-24T02:57:50;19.17;;;3.97;;
77726;SDS011;68312;53.502;10.030;2023-05-24T03:00:16;21.08;;;4.13;;
77726;SDS011;68312;53.502;10.030;2023-05-24T03:02:43;16.88;;;3.80;;
77726;SDS011;68312;53.502;10.030;2023-05-24T03:05:08;20.73;;;3.58;;
77726;SDS011;68312;53.502;10.030;2023-05-24T03:07:34;13.85;;;3.95;;
77726;SDS011;68312;53.502;10.030;2023-05-24T03:09:59;25.42;;;3.95;;
77726;SDS011;68312;53.502;10.030;2023-05-24T03:12:25;19.05;;;3.55;;
77726;SDS011;68312;53.502;10.030;2023-05-24T03:14:50;20.70;;;3.90;;
77726;SDS011;68312;53.502;10.030;2023-05-24T03:17:16;20.00;;;4.25;;
77726;SDS011;68312;53.502;10.030;2023-05-24T03:19:41;27.98;;;4.43;;
77726;SDS011;68312;53.502;10.030;2023-05-24T03:22:07;24.70;;;4.78;;
77726;SDS011;68312;53.502;10.030;2023-05-24T03:24:32;18.20;;;3.67;;
77726;SDS011;68312;53.502;10.030;2023-05-24T03:26:58;14.98;;;3.60;;
77726;SDS011;68312;53.502;10.030;2023-05-24T03:29:24;13.80;;;3.70;;
77726;SDS011;68312;53.502;10.030;2023-05-24T03:31:49;17.40;;;3.75;;
77726;SDS011;68312;53.502;10.030;2023-05-24T03:34:15;14.80;;;4.38;;
77726;SDS011;68312;53.502;10.030;2023-05-24T03:36:41;23.02;;;5.10;;
77726;SDS011;68312;53.502;10.030;2023-05-24T03:39:06;15.68;;;3.80;;
77726;SDS011;68312;53.502;10.030;2023-05-24T03:41:32;15.57;;;4.10;;
77726;SDS011;68312;53.502;10.030;2023-05-24T03:43:58;24.63;;;3.35;;
77726;SDS011;68312;53.502;10.030;2023-05-24T03:46:24;20.05;;;4.25;;
77726;SDS011;68312;53.502;10.030;2023-05-24T03:48:49;20.02;;;4.20;;
77726;SDS011;68312;53.502;10.030;2023-05-24T03:51:15;22.52;;;4.40;;
77726;SDS011;68312;53.502;10.030;2023-05-24T03:53:40;19.10;;;3.92;;
77726;SDS011;68312;53.502;10.030;2023-05-24T03:56:06;22.38;;;4.30;;
77726;SDS011;68312;53.502;10.030;2023-05-24T03:58:32;13.45;;;4.80;;
77726;SDS011;68312;53.502;10.030;2023-05-24T04:00:57;21.30;;;6.18;;
77726;SDS011;68312;53.502;10.030;2023-05-24T04:03:23;23.20;;;4.40;;
77726;SDS011;68312;53.502;10.030;2023-05-24T04:05:49;23.85;;;4.97;;
77726;SDS011;68312;53.502;10.030;2023-05-24T04:08:14;17.30;;;4.35;;
77726;SDS011;68312;53.502;10.030;2023-05-24T04:10:40;24.23;;;4.45;;
77726;SDS011;68312;53.502;10.030;2023-05-24T04:13:06;19.70;;;4.93;;
77726;SDS011;68312;53.502;10.030;2023-05-24T04:15:32;17.70;;;4.63;;
77726;SDS011;68312;53.502;10.030;2023-05-24T04:17:58;18.33;;;4.28;;
77726;SDS011;68312;53.502;10.030;2023-05-24T04:20:24;21.63;;;4.95;;
77726;SDS011;68312;53.502;10.030;2023-05-24T04:22:49;25.63;;;5.22;;
77726;SDS011;68312;53.502;10.030;2023-05-24T04:25:16;20.80;;;4.55;;
77726;SDS011;68312;53.502;10.030;2023-05-24T04:27:41;19.55;;;4.10;;
77726;SDS011;68312;53.502;10.030;2023-05-24T04:30:07;19.50;;;4.00;;
77726;SDS011;68312;53.502;10.030;2023-05-24T04:32:33;20.75;;;4.40;;
77726;SDS011;68312;53.502;10.030;2023-05-24T04:34:59;23.77;;;5.70;;
77726;SDS011;68312;53.502;10.030;2023-05-24T04:37:25;18.52;;;4.50;;
77726;SDS011;68312;53.502;10.030;2023-05-24T04:39:51;18.92;;;4.50;;
77726;SDS011;68312;53.502;10.030;2023-05-24T04:42:16;23.30;;;4.57;;
77726;SDS011;68312;53.502;10.030;2023-05-24T04:44:41;15.60;;;4.75;;
77726;SDS011;68312;53.502;10.030;2023-05-24T04:47:07;24.45;;;5.13;;
77726;SDS011;68312;53.502;10.030;2023-05-24T04:49:33;16.80;;;4.38;;
77726;SDS011;68312;53.502;10.030;2023-05-24T04:51:58;28.75;;;5.25;;
77726;SDS011;68312;53.502;10.030;2023-05-24T04:54:24;24.05;;;5.47;;
77726;SDS011;68312;53.502;10.030;2023-05-24T04:56:49;20.45;;;5.65;;
77726;SDS011;68312;53.502;10.030;2023-05-24T04:59:15;17.42;;;4.70;;
77726;SDS011;68312;53.502;10.030;2023-05-24T05:01:41;22.25;;;5.20;;
77726;SDS011;68312;53.502;10.030;2023-05-24T05:04:07;23.02;;;5.40;;
77726;SDS011;68312;53.502;10.030;2023-05-24T05:06:32;21.17;;;5.53;;
77726;SDS011;68312;53.502;10.030;2023-05-24T05:08:58;15.68;;;4.50;;
77726;SDS011;68312;53.502;10.030;2023-05-24T05:11:23;18.27;;;4.45;;
77726;SDS011;68312;53.502;10.030;2023-05-24T05:13:49;22.83;;;4.47;;
77726;SDS011;68312;53.502;10.030;2023-05-24T05:16:14;18.35;;;4.40;;
77726;SDS011;68312;53.502;10.030;2023-05-24T05:18:39;16.45;;;4.03;;
77726;SDS011;68312;53.502;10.030;2023-05-24T05:21:05;23.15;;;4.38;;
77726;SDS011;68312;53.502;10.030;2023-05-24T05:23:30;16.02;;;4.82;;
77726;SDS011;68312;53.502;10.030;2023-05-24T05:25:56;19.80;;;4.72;;
77726;SDS011;68312;53.502;10.030;2023-05-24T05:28:21;19.88;;;5.25;;
77726;SDS011;68312;53.502;10.030;2023-05-24T05:30:47;17.88;;;4.68;;
77726;SDS011;68312;53.502;10.030;2023-05-24T05:33:12;24.80;;;5.07;;
77726;SDS011;68312;53.502;10.030;2023-05-24T05:35:38;19.95;;;5.30;;
77726;SDS011;68312;53.502;10.030;2023-05-24T05:38:03;15.80;;;4.38;;
77726;SDS011;68312;53.502;10.030;2023-05-24T05:40:29;18.13;;;5.40;;
77726;SDS011;68312;53.502;10.030;2023-05-24T05:42:55;17.27;;;4.53;;
77726;SDS011;68312;53.502;10.030;2023-05-24T05:45:21;20.42;;;4.47;;
77726;SDS011;68312;53.502;10.030;2023-05-24T05:47:46;28.65;;;4.88;;
77726;SDS011;68312;53.502;10.030;2023-05-24T05:50:12;29.73;;;5.82;;
77726;SDS011;68312;53.502;10.030;2023-05-24T05:52:37;20.23;;;5.53;;
77726;SDS011;68312;53.502;10.030;2023-05-24T05:55:03;23.67;;;4.88;;
77726;SDS011;68312;53.502;10.030;2023-05-24T05:57:29;19.15;;;5.00;;
77726;SDS011;68312;53.502;10.030;2023-05-24T05:59:54;15.55;;;4.00;;
77726;SDS011;68312;53.502;10.030;2023-05-24T06:02:20;27.02;;;5.80;;
77726;SDS011;68312;53.502;10.030;2023-05-24T06:04:45;24.75;;;5.85;;
77726;SDS011;68312;53.502;10.030;2023-05-24T06:07:11;22.50;;;6.03;;
77726;SDS011;68312;53.502;10.030;2023-05-24T06:09:36;17.13;;;4.30;;
77726;SDS011;68312;53.502;10.030;2023-05-24T06:12:02;20.63;;;4.78;;
77726;SDS011;68312;53.502;10.030;2023-05-24T06:14:28;18.10;;;4.72;;
77726;SDS011;68312;53.502;10.030;2023-05-24T06:16:53;20.17;;;4.85;;
77726;SDS011;68312;53.502;10.030;2023-05-24T06:19:18;24.58;;;5.65;;
77726;SDS011;68312;53.502;10.030;2023-05-24T06:21:44;23.83;;;4.70;;
77726;SDS011;68312;53.502;10.030;2023-05-24T06:24:11;18.73;;;5.32;;
77726;SDS011;68312;53.502;10.030;2023-05-24T06:26:43;19.40;;;4.63;;
77726;SDS011;68312;53.502;10.030;2023-05-24T06:29:09;24.00;;;5.55;;
77726;SDS011;68312;53.502;10.030;2023-05-24T06:31:34;20.15;;;5.47;;
77726;SDS011;68312;53.502;10.030;2023-05-24T06:33:59;19.52;;;5.40;;
77726;SDS011;68312;53.502;10.030;2023-05-24T06:36:25;13.05;;;4.45;;
77726;SDS011;68312;53.502;10.030;2023-05-24T06:38:50;20.85;;;6.47;;
77726;SDS011;68312;53.502;10.030;2023-05-24T06:41:16;24.38;;;5.53;;
77726;SDS011;68312;53.502;10.030;2023-05-24T06:43:41;22.40;;;6.45;;
77726;SDS011;68312;53.502;10.030;2023-05-24T06:46:07;24.65;;;5.65;;
77726;SDS011;68312;53.502;10.030;2023-05-24T06:48:32;23.88;;;6.03;;
77726;SDS011;68312;53.502;10.030;2023-05-24T06:50:58;24.30;;;5.72;;
77726;SDS011;68312;53.502;10.030;2023-05-24T06:53:23;28.50;;;6.07;;
77726;SDS011;68312;53.502;10.030;2023-05-24T06:55:49;22.85;;;5.25;;
77726;SDS011;68312;53.502;10.030;2023-05-24T06:58:14;14.85;;;4.78;;
77726;SDS011;68312;53.502;10.030;2023-05-24T07:00:40;27.33;;;6.78;;
77726;SDS011;68312;53.502;10.030;2023-05-24T07:03:07;23.45;;;5.13;;
77726;SDS011;68312;53.502;10.030;2023-05-24T07:05:33;19.65;;;5.00;;
77726;SDS011;68312;53.502;10.030;2023-05-24T07:07:59;16.40;;;4.57;;
77726;SDS011;68312;53.502;10.030;2023-05-24T07:10:25;12.52;;;4.45;;
77726;SDS011;68312;53.502;10.030;2023-05-24T07:12:50;26.20;;;5.18;;
77726;SDS011;68312;53.502;10.030;2023-05-24T07:15:16;22.55;;;5.20;;
77726;SDS011;68312;53.502;10.030;2023-05-24T07:17:41;15.98;;;4.18;;
77726;SDS011;68312;53.502;10.030;2023-05-24T07:20:07;18.73;;;4.63;;
77726;SDS011;68312;53.502;10.030;2023-05-24T07:22:34;25.33;;;5.57;;
77726;SDS011;68312;53.502;10.030;2023-05-24T07:25:00;20.60;;;4.95;;
77726;SDS011;68312;53.502;10.030;2023-05-24T07:27:26;23.77;;;5.78;;
77726;SDS011;68312;53.502;10.030;2023-05-24T07:29:52;23.63;;;5.97;;
77726;SDS011;68312;53.502;10.030;2023-05-24T07:32:18;23.05;;;5.80;;
77726;SDS011;68312;53.502;10.030;2023-05-24T07:34:43;25.58;;;5.40;;
77726;SDS011;68312;53.502;10.030;2023-05-24T07:37:09;19.75;;;4.75;;
77726;SDS011;68312;53.502;10.030;2023-05-24T07:39:35;23.83;;;6.18;;
77726;SDS011;68312;53.502;10.030;2023-05-24T07:42:00;31.30;;;5.72;;
77726;SDS011;68312;53.502;10.030;2023-05-24T07:44:25;28.40;;;6.20;;
77726;SDS011;68312;53.502;10.030;2023-05-24T07:46:51;24.55;;;4.80;;
77726;SDS011;68312;53.502;10.030;2023-05-24T07:49:16;22.23;;;4.60;;
77726;SDS011;68312;53.502;10.030;2023-05-24T07:51:42;29.23;;;5.25;;
77726;SDS011;68312;53.502;10.030;2023-05-24T07:54:09;20.73;;;4.72;;
77726;SDS011;68312;53.502;10.030;2023-05-24T07:56:34;23.92;;;4.60;;
77726;SDS011;68312;53.502;10.030;2023-05-24T07:59:00;26.58;;;4.97;;
77726;SDS011;68312;53.502;10.030;2023-05-24T08:01:25;20.95;;;5.45;;
77726;SDS011;68312;53.502;10.030;2023-05-24T08:03:51;23.92;;;5.18;;
77726;SDS011;68312;53.502;10.030;2023-05-24T08:06:16;22.08;;;5.65;;
77726;SDS011;68312;53.502;10.030;2023-05-24T08:08:42;24.58;;;5.05;;
77726;SDS011;68312;53.502;10.030;2023-05-24T08:11:07;17.92;;;4.55;;
77726;SDS011;68312;53.502;10.030;2023-05-24T08:13:33;18.67;;;5.30;;
77726;SDS011;68312;53.502;10.030;2023-05-24T08:15:59;24.75;;;5.03;;
77726;SDS011;68312;53.502;10.030;2023-05-24T08:18:24;17.83;;;5.05;;
77726;SDS011;68312;53.502;10.030;2023-05-24T08:20:50;21.75;;;5.65;;
77726;SDS011;68312;53.502;10.030;2023-05-24T08:23:16;18.92;;;4.50;;
77726;SDS011;68312;53.502;10.030;2023-05-24T08:25:41;24.80;;;5.38;;
77726;SDS011;68312;53.502;10.030;2023-05-24T08:28:07;17.33;;;4.82;;
77726;SDS011;68312;53.502;10.030;2023-05-24T08:30:32;18.33;;;5.03;;
77726;SDS011;68312;53.502;10.030;2023-05-24T08:32:58;20.40;;;4.60;;
77726;SDS011;68312;53.502;10.030;2023-05-24T08:35:23;19.23;;;4.90;;
77726;SDS011;68312;53.502;10.030;2023-05-24T08:37:49;18.98;;;4.50;;
77726;SDS011;68312;53.502;10.030;2023-05-24T08:40:14;17.70;;;4.50;;
77726;SDS011;68312;53.502;10.030;2023-05-24T08:42:40;20.90;;;4.60;;
77726;SDS011;68312;53.502;10.030;2023-05-24T08:45:15;19.30;;;4.93;;
77726;SDS011;68312;53.502;10.030;2023-05-24T08:47:45;17.20;;;4.25;;
77726;SDS011;68312;53.502;10.030;2023-05-24T08:50:13;20.80;;;4.80;;
77726;SDS011;68312;53.502;10.030;2023-05-24T08:52:39;13.65;;;4.43;;
77726;SDS011;68312;53.502;10.030;2023-05-24T08:55:07;19.10;;;4.25;;
77726;SDS011;68312;53.502;10.030;2023-05-24T08:57:35;20.20;;;4.78;;
77726;SDS011;68312;53.502;10.030;2023-05-24T09:00:02;22.58;;;5.10;;
77726;SDS011;68312;53.502;10.030;2023-05-24T09:02:28;17.88;;;4.75;;
77726;SDS011;68312;53.502;10.030;2023-05-24T09:04:55;16.40;;;4.65;;
77726;SDS011;68312;53.502;10.030;2023-05-24T09:07:24;16.88;;;4.60;;
77726;SDS011;68312;53.502;10.030;2023-05-24T09:10:09;19.08;;;4.03;;
77726;SDS011;68312;53.502;10.030;2023-05-24T09:12:36;17.63;;;3.80;;
77726;SDS011;68312;53.502;10.030;2023-05-24T09:15:05;20.02;;;3.80;;
77726;SDS011;68312;53.502;10.030;2023-05-24T09:17:35;17.00;;;4.38;;
77726;SDS011;68312;53.502;10.030;2023-05-24T09:20:02;19.23;;;3.85;;
77726;SDS011;68312;53.502;10.030;2023-05-24T09:22:30;19.70;;;4.55;;
77726;SDS011;68312;53.502;10.030;2023-05-24T09:24:59;22.73;;;5.05;;
77726;SDS011;68312;53.502;10.030;2023-05-24T09:27:26;20.73;;;5.55;;
77726;SDS011;68312;53.502;10.030;2023-05-24T09:29:52;14.85;;;4.30;;
77726;SDS011;68312;53.502;10.030;2023-05-24T09:32:20;14.40;;;4.50;;
77726;SDS011;68312;53.502;10.030;2023-05-24T09:34:47;20.95;;;4.55;;
77726;SDS011;68312;53.502;10.030;2023-05-24T09:37:14;13.48;;;4.20;;
77726;SDS011;68312;53.502;10.030;2023-05-24T09:39:43;24.45;;;4.80;;
77726;SDS011;68312;53.502;10.030;2023-05-24T09:42:16;18.95;;;4.25;;
77726;SDS011;68312;53.502;10.030;2023-05-24T09:44:43;19.23;;;4.15;;
77726;SDS011;68312;53.502;10.030;2023-05-24T09:47:09;15.57;;;3.55;;
77726;SDS011;68312;53.502;10.030;2023-05-24T09:49:37;11.52;;;3.83;;
77726;SDS011;68312;53.502;10.030;2023-05-24T09:52:03;13.90;;;3.55;;
77726;SDS011;68312;53.502;10.030;2023-05-24T09:54:30;12.63;;;3.58;;
77726;SDS011;68312;53.502;10.030;2023-05-24T09:56:58;14.32;;;3.70;;
77726;SDS011;68312;53.502;10.030;2023-05-24T09:59:28;11.73;;;3.33;;
77726;SDS011;68312;53.502;10.030;2023-05-24T10:02:07;10.15;;;3.47;;
77726;SDS011;68312;53.502;10.030;2023-05-24T10:04:35;14.45;;;3.50;;
77726;SDS011;68312;53.502;10.030;2023-05-24T10:07:01;15.38;;;3.15;;
77726;SDS011;68312;53.502;10.030;2023-05-24T10:09:28;15.85;;;3.40;;
77726;SDS011;68312;53.502;10.030;2023-05-24T10:11:55;13.57;;;4.03;;
77726;SDS011;68312;53.502;10.030;2023-05-24T10:14:20;9.88;;;2.92;;
77726;SDS011;68312;53.502;10.030;2023-05-24T10:16:49;13.55;;;3.10;;
77726;SDS011;68312;53.502;10.030;2023-05-24T10:19:14;9.50;;;3.00;;
77726;SDS011;68312;53.502;10.030;2023-05-24T10:21:39;9.77;;;3.03;;
77726;SDS011;68312;53.502;10.030;2023-05-24T10:24:07;13.23;;;3.10;;
77726;SDS011;68312;53.502;10.030;2023-05-24T10:26:35;16.52;;;3.70;;
77726;SDS011;68312;53.502;10.030;2023-05-24T10:29:03;14.57;;;3.08;;
77726;SDS011;68312;53.502;10.030;2023-05-24T10:31:40;10.30;;;2.78;;
77726;SDS011;68312;53.502;10.030;2023-05-24T10:34:08;11.90;;;2.88;;
77726;SDS011;68312;53.502;10.030;2023-05-24T10:36:34;11.13;;;2.78;;
77726;SDS011;68312;53.502;10.030;2023-05-24T10:39:01;8.35;;;2.50;;
77726;SDS011;68312;53.502;10.030;2023-05-24T10:41:27;16.08;;;3.50;;
77726;SDS011;68312;53.502;10.030;2023-05-24T10:43:53;8.82;;;2.97;;
77726;SDS011;68312;53.502;10.030;2023-05-24T10:46:21;17.13;;;3.40;;
77726;SDS011;68312;53.502;10.030;2023-05-24T10:48:59;14.75;;;3.08;;
77726;SDS011;68312;53.502;10.030;2023-05-24T10:51:32;8.82;;;2.83;;
77726;SDS011;68312;53.502;10.030;2023-05-24T10:54:35;11.32;;;2.90;;
77726;SDS011;68312;53.502;10.030;2023-05-24T10:56:54;11.18;;;3.08;;
77726;SDS011;68312;53.502;10.030;2023-05-24T10:59:23;15.40;;;3.25;;
77726;SDS011;68312;53.502;10.030;2023-05-24T11:02:09;14.00;;;3.17;;
77726;SDS011;68312;53.502;10.030;2023-05-24T11:04:36;9.23;;;2.88;;
77726;SDS011;68312;53.502;10.030;2023-05-24T11:07:08;10.15;;;3.13;;
77726;SDS011;68312;53.502;10.030;2023-05-24T11:09:38;12.68;;;3.65;;
77726;SDS011;68312;53.502;10.030;2023-05-24T11:12:06;9.82;;;2.65;;
77726;SDS011;68312;53.502;10.030;2023-05-24T11:14:36;11.00;;;3.05;;
77726;SDS011;68312;53.502;10.030;2023-05-24T11:17:04;12.95;;;2.90;;
77726;SDS011;68312;53.502;10.030;2023-05-24T11:19:32;13.10;;;3.58;;
77726;SDS011;68312;53.502;10.030;2023-05-24T11:22:09;10.50;;;3.03;;
77726;SDS011;68312;53.502;10.030;2023-05-24T11:24:39;9.18;;;2.92;;
77726;SDS011;68312;53.502;10.030;2023-05-24T11:27:05;12.20;;;3.45;;
77726;SDS011;68312;53.502;10.030;2023-05-24T11:29:31;15.05;;;3.33;;
77726;SDS011;68312;53.502;10.030;2023-05-24T11:32:05;12.55;;;3.10;;
77726;SDS011;68312;53.502;10.030;2023-05-24T11:34:31;12.35;;;3.13;;
77726;SDS011;68312;53.502;10.030;2023-05-24T11:36:58;13.70;;;3.40;;
77726;SDS011;68312;53.502;10.030;2023-05-24T11:39:32;14.30;;;3.20;;
77726;SDS011;68312;53.502;10.030;2023-05-24T11:42:03;14.50;;;3.40;;
77726;SDS011;68312;53.502;10.030;2023-05-24T11:44:30;15.55;;;3.88;;
77726;SDS011;68312;53.502;10.030;2023-05-24T11:47:00;9.07;;;2.92;;
77726;SDS011;68312;53.502;10.030;2023-05-24T11:51:56;10.07;;;3.25;;
77726;SDS011;68312;53.502;10.030;2023-05-24T11:54:24;11.25;;;2.75;;
77726;SDS011;68312;53.502;10.030;2023-05-24T11:56:52;17.60;;;3.72;;
77726;SDS011;68312;53.502;10.030;2023-05-24T12:02:00;13.90;;;3.63;;
77726;SDS011;68312;53.502;10.030;2023-05-24T12:04:30;15.20;;;3.80;;
77726;SDS011;68312;53.502;10.030;2023-05-24T12:06:57;9.05;;;3.45;;
77726;SDS011;68312;53.502;10.030;2023-05-24T12:09:23;15.55;;;3.35;;
77726;SDS011;68312;53.502;10.030;2023-05-24T12:11:49;10.85;;;3.72;;
77726;SDS011;68312;53.502;10.030;2023-05-24T12:14:17;17.35;;;4.15;;
77726;SDS011;68312;53.502;10.030;2023-05-24T12:16:53;8.25;;;3.20;;
77726;SDS011;68312;53.502;10.030;2023-05-24T12:19:20;15.93;;;4.30;;
77726;SDS011;68312;53.502;10.030;2023-05-24T12:21:48;16.15;;;4.38;;
77726;SDS011;68312;53.502;10.030;2023-05-24T12:24:14;11.27;;;3.65;;
77726;SDS011;68312;53.502;10.030;2023-05-24T12:26:42;14.02;;;3.55;;
77726;SDS011;68312;53.502;10.030;2023-05-24T12:29:11;15.23;;;3.85;;
77726;SDS011;68312;53.502;10.030;2023-05-24T12:31:39;11.93;;;3.58;;
77726;SDS011;68312;53.502;10.030;2023-05-24T12:34:16;10.55;;;3.58;;
77726;SDS011;68312;53.502;10.030;2023-05-24T12:36:44;11.95;;;3.03;;
77726;SDS011;68312;53.502;10.030;2023-05-24T12:39:23;19.70;;;3.72;;
77726;SDS011;68312;53.502;10.030;2023-05-24T12:41:54;10.40;;;3.50;;
77726;SDS011;68312;53.502;10.030;2023-05-24T12:44:35;13.60;;;3.50;;
77726;SDS011;68312;53.502;10.030;2023-05-24T12:47:04;8.90;;;2.90;;
77726;SDS011;68312;53.502;10.030;2023-05-24T12:49:32;12.35;;;3.65;;
77726;SDS011;68312;53.502;10.030;2023-05-24T12:51:58;13.40;;;3.60;;
77726;SDS011;68312;53.502;10.030;2023-05-24T12:54:25;12.30;;;3.65;;
77726;SDS011;68312;53.502;10.030;2023-05-24T12:56:53;9.57;;;3.03;;
77726;SDS011;68312;53.502;10.030;2023-05-24T12:59:20;8.43;;;3.10;;
77726;SDS011;68312;53.502;10.030;2023-05-24T13:01:46;11.55;;;2.80;;
77726;SDS011;68312;53.502;10.030;2023-05-24T13:04:11;11.73;;;3.28;;
77726;SDS011;68312;53.502;10.030;2023-05-24T13:06:37;12.15;;;2.95;;
77726;SDS011;68312;53.502;10.030;2023-05-24T13:09:03;11.00;;;3.05;;
77726;SDS011;68312;53.502;10.030;2023-05-24T13:11:29;8.90;;;3.00;;
77726;SDS011;68312;53.502;10.030;2023-05-24T13:13:54;12.82;;;3.72;;
77726;SDS011;68312;53.502;10.030;2023-05-24T13:16:20;11.05;;;3.72;;
77726;SDS011;68312;53.502;10.030;2023-05-24T13:18:45;11.30;;;3.55;;
77726;SDS011;68312;53.502;10.030;2023-05-24T13:21:11;13.27;;;3.85;;
77726;SDS011;68312;53.502;10.030;2023-05-24T13:23:36;15.60;;;4.13;;
77726;SDS011;68312;53.502;10.030;2023-05-24T13:26:02;15.65;;;4.50;;
77726;SDS011;68312;53.502;10.030;2023-05-24T13:28:28;14.80;;;3.78;;
77726;SDS011;68312;53.502;10.030;2023-05-24T13:30:54;15.82;;;4.18;;
77726;SDS011;68312;53.502;10.030;2023-05-24T13:33:20;13.73;;;4.22;;
77726;SDS011;68312;53.502;10.030;2023-05-24T13:35:45;13.63;;;3.85;;
77726;SDS011;68312;53.502;10.030;2023-05-24T13:38:11;11.82;;;3.78;;
77726;SDS011;68312;53.502;10.030;2023-05-24T13:40:37;9.80;;;3.50;;
77726;SDS011;68312;53.502;10.030;2023-05-24T13:43:04;10.15;;;3.20;;
77726;SDS011;68312;53.502;10.030;2023-05-24T13:45:30;10.75;;;3.38;;
77726;SDS011;68312;53.502;10.030;2023-05-24T13:47:56;10.68;;;3.28;;
77726;SDS011;68312;53.502;10.030;2023-05-24T13:50:21;12.13;;;3.42;;
77726;SDS011;68312;53.502;10.030;2023-05-24T13:52:47;10.50;;;3.60;;
77726;SDS011;68312;53.502;10.030;2023-05-24T13:55:13;9.43;;;2.95;;
77726;SDS011;68312;53.502;10.030;2023-05-24T13:57:38;8.75;;;3.30;;
77726;SDS011;68312;53.502;10.030;2023-05-24T14:00:04;9.30;;;3.38;;
77726;SDS011;68312;53.502;10.030;2023-05-24T14:02:30;10.82;;;3.20;;
77726;SDS011;68312;53.502;10.030;2023-05-24T14:04:56;12.18;;;3.65;;
77726;SDS011;68312;53.502;10.030;2023-05-24T14:07:21;9.15;;;3.58;;
77726;SDS011;68312;53.502;10.030;2023-05-24T14:09:47;13.00;;;4.60;;
77726;SDS011;68312;53.502;10.030;2023-05-24T14:12:12;14.07;;;4.18;;
77726;SDS011;68312;53.502;10.030;2023-05-24T14:14:38;12.30;;;3.95;;
77726;SDS011;68312;53.502;10.030;2023-05-24T14:17:03;12.98;;;4.43;;
77726;SDS011;68312;53.502;10.030;2023-05-24T14:19:29;14.80;;;4.68;;
77726;SDS011;68312;53.502;10.030;2023-05-24T14:21:56;13.13;;;4.15;;
77726;SDS011;68312;53.502;10.030;2023-05-24T14:24:21;20.08;;;4.85;;
77726;SDS011;68312;53.502;10.030;2023-05-24T14:26:47;18.20;;;4.38;;
77726;SDS011;68312;53.502;10.030;2023-05-24T14:29:12;18.60;;;4.70;;
77726;SDS011;68312;53.502;10.030;2023-05-24T14:31:38;13.10;;;4.45;;
77726;SDS011;68312;53.502;10.030;2023-05-24T14:34:03;17.75;;;4.47;;
77726;SDS011;68312;53.502;10.030;2023-05-24T14:36:28;15.15;;;4.47;;
77726;SDS011;68312;53.502;10.030;2023-05-24T14:38:54;10.68;;;3.63;;
77726;SDS011;68312;53.502;10.030;2023-05-24T14:41:19;17.58;;;4.30;;
77726;SDS011;68312;53.502;10.030;2023-05-24T14:43:45;16.30;;;4.72;;
77726;SDS011;68312;53.502;10.030;2023-05-24T14:46:10;13.85;;;3.85;;
77726;SDS011;68312;53.502;10.030;2023-05-24T14:48:36;11.95;;;3.75;;